Time;durP1;ratioP1;P1;durP2;ratioP2;P2;SDS_P1;SDS_P2;PMS_P1;PMS_P2;Temp;Humidity;BMP_temperature;BMP_pressure;BME280_temperature;BME280_humidity;BME280_pressure;Samples;Min_cycle;Max_cycle;Signal;HPM_P1;HPM_P2
2023/10/21 00:02:13;;;;;;;4.63;2.42;;;;;;;21.98;84.68;98239.53;5040558;28;20032;-40
2023/10/21 00:04:39;;;;;;;5.22;2.70;;;;;;;21.99;84.27;98251.38;5034689;28;20045;-43
2023/10/21 00:07:04;;;;;;;4.65;2.30;;;;;;;21.99;84.39;98248.63;5040654;28;20513;-44
2023/10/21 00:09:29;;;;;;;5.15;2.78;;;;;;;21.98;84.84;98252.53;5043094;28;20199;-43
2023/10/21 00:11:55;;;;;;;5.70;2.53;;;;;;;21.97;84.78;98251.72;5040227;28;20060;-43
2023/10/21 00:14:20;;;;;;;3.90;2.20;;;;;;;21.96;84.58;98252.88;5034147;28;20037;-44
2023/10/21 00:16:46;;;;;;;5.70;2.50;;;;;;;21.93;85.01;98259.13;5038840;28;20109;-43
2023/10/21 00:19:11;;;;;;;4.78;2.45;;;;;;;21.93;84.57;98257.16;5032336;28;20052;-43
2023/10/21 00:21:39;;;;;;;5.78;2.65;;;;;;;21.93;84.86;98259.13;5039986;28;20671;-44
2023/10/21 00:24:05;;;;;;;4.50;2.40;;;;;;;21.93;84.80;98259.13;5039480;28;20507;-44
2023/10/21 00:26:30;;;;;;;4.15;2.05;;;;;;;21.92;84.97;98260.31;5039908;28;20036;-43
2023/10/21 00:28:55;;;;;;;6.03;2.70;;;;;;;21.91;85.06;98258.69;5042030;28;20036;-44
2023/10/21 00:31:21;;;;;;;5.20;2.60;;;;;;;21.91;85.26;98265.03;5040007;28;20032;-43
2023/10/21 00:33:46;;;;;;;6.10;2.70;;;;;;;21.89;84.93;98264.59;5040475;28;20036;-44
2023/10/21 00:36:12;;;;;;;4.63;2.40;;;;;;;21.90;85.19;98273.66;5041137;28;20048;-44
2023/10/21 00:38:37;;;;;;;4.28;2.42;;;;;;;21.91;85.25;98272.50;5031837;28;20457;-44
2023/10/21 00:41:02;;;;;;;4.20;2.53;;;;;;;21.91;84.83;98270.53;5040617;28;20119;-40
2023/10/21 00:43:39;;;;;;;4.32;2.40;;;;;;;21.90;85.08;98282.72;5041737;28;20734;-40
2023/10/21 00:46:16;;;;;;;7.13;2.80;;;;;;;21.89;85.20;98286.66;5031648;28;20043;-44
2023/10/21 00:48:42;;;;;;;4.50;2.80;;;;;;;21.90;85.37;98292.94;5040542;28;20884;-43
2023/10/21 00:51:11;;;;;;;7.53;2.65;;;;;;;21.86;85.05;98292.88;5022553;28;21798;-46
2023/10/21 00:53:38;;;;;;;6.60;2.40;;;;;;;21.87;85.47;98299.19;5043441;28;20753;-40
2023/10/21 00:56:06;;;;;;;4.07;2.22;;;;;;;21.86;85.04;98295.63;5033988;28;20119;-40
2023/10/21 00:58:31;;;;;;;4.03;2.22;;;;;;;21.85;85.10;98299.56;5042225;28;20720;-40
2023/10/21 01:01:03;;;;;;;5.43;2.22;;;;;;;21.84;85.31;98309.00;5041854;28;20028;-40
2023/10/21 01:03:29;;;;;;;4.63;2.40;;;;;;;21.84;85.36;98305.44;5024100;28;20507;-40
2023/10/21 01:05:55;;;;;;;5.57;2.78;;;;;;;21.84;85.26;98308.19;5040803;28;20039;-40
2023/10/21 01:08:21;;;;;;;5.10;2.53;;;;;;;21.84;85.37;98310.94;5044236;28;20386;-40
2023/10/21 01:10:47;;;;;;;4.47;2.25;;;;;;;21.83;85.35;98307.41;5032303;28;20043;-44
2023/10/21 01:13:12;;;;;;;7.97;2.60;;;;;;;21.84;85.27;98308.19;5036900;28;20420;-43
2023/10/21 01:15:37;;;;;;;5.30;2.38;;;;;;;21.82;85.28;98311.31;5037368;28;20048;-45
2023/10/21 01:18:04;;;;;;;4.13;2.63;;;;;;;21.80;85.37;98308.94;5035286;28;20116;-40
2023/10/21 01:20:30;;;;;;;3.97;2.70;;;;;;;21.80;85.59;98313.63;5036059;28;20504;-40
2023/10/21 01:23:05;;;;;;;4.13;2.40;;;;;;;21.78;85.67;98316.75;5023160;28;20040;-40
2023/10/21 01:25:32;;;;;;;2.85;2.00;;;;;;;21.78;85.55;98325.03;5039971;28;20064;-40
2023/10/21 01:27:58;;;;;;;6.13;2.60;;;;;;;21.77;85.86;98333.66;5041363;28;20462;-40
2023/10/21 01:30:23;;;;;;;6.72;2.50;;;;;;;21.76;85.83;98335.59;5032366;28;20032;-40
2023/10/21 01:32:49;;;;;;;5.05;2.40;;;;;;;21.75;86.17;98333.22;5040333;28;20024;-40
2023/10/21 01:35:16;;;;;;;4.25;2.42;;;;;;;21.75;85.71;98334.03;5034505;28;20420;-43
2023/10/21 01:37:42;;;;;;;3.70;2.40;;;;;;;21.76;86.17;98334.81;5041227;28;20450;-43
2023/10/21 01:40:10;;;;;;;5.38;2.45;;;;;;;21.76;86.04;98340.34;5041157;28;20115;-40
2023/10/21 01:42:36;;;;;;;6.78;2.47;;;;;;;21.75;86.09;98347.00;5039008;28;20059;-44
2023/10/21 01:45:04;;;;;;;5.75;2.35;;;;;;;21.73;85.99;98335.53;5031896;28;20036;-39
2023/10/21 01:47:30;;;;;;;4.95;2.00;;;;;;;21.73;85.83;98347.38;5042270;28;20433;-39
2023/10/21 01:49:55;;;;;;;5.05;2.30;;;;;;;21.72;85.90;98343.03;5042690;28;20044;-40
2023/10/21 01:52:21;;;;;;;6.82;2.63;;;;;;;21.72;86.07;98342.22;5039542;28;20072;-43
2023/10/21 01:54:46;;;;;;;4.43;2.22;;;;;;;21.72;86.37;98350.50;5020848;28;20037;-44
2023/10/21 01:57:11;;;;;;;4.80;2.58;;;;;;;21.71;86.54;98346.16;5023173;28;20407;-39
2023/10/21 01:59:39;;;;;;;3.83;2.47;;;;;;;21.70;86.33;98350.06;5045180;28;20068;-44
2023/10/21 02:02:05;;;;;;;6.45;2.53;;;;;;;21.71;86.45;98354.41;5044371;28;20028;-39
2023/10/21 02:04:31;;;;;;;6.22;2.53;;;;;;;21.70;86.33;98359.13;5035158;28;20033;-43
2023/10/21 02:06:56;;;;;;;4.28;2.28;;;;;;;21.69;86.13;98360.28;5040494;28;20039;-40
2023/10/21 02:09:21;;;;;;;6.35;2.45;;;;;;;21.69;86.43;98353.97;5044532;28;20044;-40
2023/10/21 02:11:47;;;;;;;5.68;2.28;;;;;;;21.68;86.25;98372.47;5042733;28;20035;-40
2023/10/21 02:14:13;;;;;;;4.90;3.08;;;;;;;21.66;86.62;98374.78;5025816;28;20471;-40
2023/10/21 02:16:38;;;;;;;4.60;2.15;;;;;;;21.67;86.57;98370.88;5025996;28;20028;-39
2023/10/21 02:19:04;;;;;;;5.25;2.50;;;;;;;21.67;86.74;98381.09;5029139;28;20085;-39
2023/10/21 02:21:29;;;;;;;7.10;3.35;;;;;;;21.68;86.45;98388.19;5009294;28;20037;-39
2023/10/21 02:23:54;;;;;;;5.38;2.70;;;;;;;21.68;86.51;98394.53;5023176;28;20543;-39
2023/10/21 02:26:20;;;;;;;5.95;2.47;;;;;;;21.69;86.55;98398.88;5021101;28;20676;-39
2023/10/21 02:28:45;;;;;;;4.35;2.22;;;;;;;21.68;86.77;98394.53;5020293;28;20029;-40
2023/10/21 02:31:12;;;;;;;4.53;2.20;;;;;;;21.69;86.41;98403.59;5003982;28;20029;-44
2023/10/21 02:33:37;;;;;;;4.13;2.38;;;;;;;21.70;86.59;98418.97;5019308;28;20776;-43
2023/10/21 02:36:03;;;;;;;3.38;2.30;;;;;;;21.69;86.51;98409.91;5020044;28;20040;-39
2023/10/21 02:38:29;;;;;;;4.65;2.72;;;;;;;21.68;86.76;98413.81;5020512;28;20563;-39
2023/10/21 02:40:54;;;;;;;5.47;2.60;;;;;;;21.69;86.33;98404.41;5021179;28;20041;-39
2023/10/21 02:43:19;;;;;;;6.18;3.47;;;;;;;21.69;86.48;98407.16;5012251;28;20055;-39
2023/10/21 02:45:45;;;;;;;4.43;2.53;;;;;;;21.69;86.72;98411.84;5017958;28;20036;-39
2023/10/21 02:48:11;;;;;;;5.85;2.60;;;;;;;21.68;86.50;98413.81;5018323;28;20040;-39
2023/10/21 02:50:36;;;;;;;4.45;2.50;;;;;;;21.67;86.79;98400.38;5021887;28;20056;-43
2023/10/21 02:53:01;;;;;;;6.07;2.88;;;;;;;21.66;87.20;98412.59;5018641;28;20033;-39
2023/10/21 02:55:27;;;;;;;4.03;2.45;;;;;;;21.62;87.26;98415.25;5019360;28;20048;-40
2023/10/21 02:57:53;;;;;;;9.25;2.70;;;;;;;21.61;87.25;98414.44;5019787;28;20055;-40
2023/10/21 03:00:21;;;;;;;4.28;2.33;;;;;;;21.61;87.15;98416.41;5020463;28;20028;-40
2023/10/21 03:02:48;;;;;;;4.85;2.67;;;;;;;21.61;87.08;98419.19;5019736;28;20112;-39
2023/10/21 03:05:15;;;;;;;5.40;2.50;;;;;;;21.59;87.17;98435.25;5019201;28;20079;-39
2023/10/21 03:07:42;;;;;;;5.40;2.78;;;;;;;21.58;87.53;98442.75;5019363;28;20115;-40
2023/10/21 03:10:08;;;;;;;4.43;2.40;;;;;;;21.55;87.71;98440.66;5017556;28;20052;-40
2023/10/21 03:12:33;;;;;;;3.95;2.28;;;;;;;21.54;87.79;98436.31;5018883;28;20036;-40
2023/10/21 03:15:00;;;;;;;3.70;2.38;;;;;;;21.56;87.91;98438.72;5019303;28;20186;-39
2023/10/21 03:17:26;;;;;;;7.47;2.40;;;;;;;21.54;87.48;98439.06;4959877;28;1217314;-39
2023/10/21 03:19:54;;;;;;;3.78;2.30;;;;;;;21.55;87.54;98445.38;5040796;28;20032;-40
2023/10/21 03:22:20;;;;;;;3.80;2.58;;;;;;;21.56;87.61;98450.56;5039927;28;20043;-40
2023/10/21 03:24:45;;;;;;;5.85;2.50;;;;;;;21.56;87.80;98447.00;5022970;28;20097;-40
2023/10/21 03:27:11;;;;;;;5.15;2.50;;;;;;;21.55;87.71;98459.94;5039667;28;20040;-40
2023/10/21 03:29:36;;;;;;;3.75;2.08;;;;;;;21.54;87.71;98463.84;5021946;28;20034;-40
2023/10/21 03:32:02;;;;;;;10.05;2.50;;;;;;;21.54;87.70;98460.31;5040652;28;20037;-40
2023/10/21 03:34:27;;;;;;;4.97;2.13;;;;;;;21.54;87.70;98468.59;5039984;28;20163;-40
2023/10/21 03:36:53;;;;;;;4.00;2.00;;;;;;;21.55;87.71;98467.44;5040628;28;20044;-40
2023/10/21 03:39:19;;;;;;;4.97;2.25;;;;;;;21.54;87.32;98466.63;5039192;28;20376;-40
2023/10/21 03:41:45;;;;;;;5.38;2.72;;;;;;;21.54;87.72;98474.09;5039656;28;20036;-44
2023/10/21 03:44:10;;;;;;;4.95;2.45;;;;;;;21.55;87.78;98470.19;5040151;28;21537;-45
2023/10/21 03:46:36;;;;;;;7.72;2.95;;;;;;;21.54;87.53;98480.41;5040415;28;20111;-44
2023/10/21 03:49:02;;;;;;;5.45;2.55;;;;;;;21.54;87.57;98477.63;5040512;28;20044;-45
2023/10/21 03:51:28;;;;;;;4.97;2.33;;;;;;;21.53;88.04;98481.56;5039328;28;20040;-45
2023/10/21 03:53:54;;;;;;;4.40;2.30;;;;;;;21.54;88.17;98479.59;5022638;28;20123;-44
2023/10/21 03:56:19;;;;;;;5.43;2.47;;;;;;;21.51;88.23;98488.56;5039876;28;20502;-42
2023/10/21 03:58:44;;;;;;;3.33;2.33;;;;;;;21.51;88.00;98488.56;5038878;28;20304;-44
2023/10/21 04:01:10;;;;;;;3.65;2.20;;;;;;;21.51;87.85;98494.09;5021860;28;20028;-44
2023/10/21 04:03:35;;;;;;;2.80;2.05;;;;;;;21.50;87.93;98495.28;5039861;28;20531;-44
2023/10/21 04:06:01;;;;;;;5.20;2.30;;;;;;;21.49;88.40;98491.69;5037803;28;20127;-43
2023/10/21 04:08:28;;;;;;;4.28;2.20;;;;;;;21.49;87.96;98505.47;5039625;28;20037;-45
2023/10/21 04:10:54;;;;;;;3.30;2.05;;;;;;;21.48;88.08;98510.19;5040140;28;20041;-43
2023/10/21 04:13:20;;;;;;;5.00;2.20;;;;;;;21.48;87.97;98507.44;5038832;28;20043;-43
2023/10/21 04:15:45;;;;;;;3.25;2.30;;;;;;;21.46;87.79;98509.75;5020753;28;20393;-44
2023/10/21 04:18:11;;;;;;;4.05;2.35;;;;;;;21.46;87.96;98515.25;5037427;28;20106;-43
2023/10/21 04:20:38;;;;;;;7.85;2.10;;;;;;;21.47;87.81;98518.81;5026721;28;20405;-42
2023/10/21 04:23:03;;;;;;;4.65;2.15;;;;;;;21.46;87.97;98525.50;5033208;28;20069;-43
2023/10/21 04:25:28;;;;;;;4.35;2.22;;;;;;;21.47;87.90;98530.66;5032338;28;20976;-39
2023/10/21 04:27:55;;;;;;;4.10;2.03;;;;;;;21.47;88.00;98530.66;5031914;28;20040;-43
2023/10/21 04:30:22;;;;;;;5.13;2.33;;;;;;;21.50;87.98;98533.84;5030905;28;20425;-43
2023/10/21 04:32:48;;;;;;;2.67;2.00;;;;;;;21.48;87.93;98540.50;5033954;28;20063;-44
2023/10/21 04:35:13;;;;;;;4.75;2.10;;;;;;;21.47;87.44;98551.88;5013737;28;20074;-44
2023/10/21 04:37:38;;;;;;;4.07;2.20;;;;;;;21.45;87.83;98560.50;5013129;28;20388;-40
2023/10/21 04:40:05;;;;;;;3.40;2.10;;;;;;;21.45;87.89;98560.50;5032636;28;20079;-40
2023/10/21 04:42:31;;;;;;;3.78;2.20;;;;;;;21.47;87.48;98571.97;5016223;28;20773;-40
2023/10/21 04:44:56;;;;;;;4.78;2.40;;;;;;;21.45;87.98;98566.00;5032257;28;20068;-40
2023/10/21 04:47:21;;;;;;;4.70;2.10;;;;;;;21.44;87.91;98577.41;5032127;28;20040;-44
2023/10/21 04:49:47;;;;;;;5.22;2.28;;;;;;;21.41;88.15;98559.63;5032080;28;20383;-43
2023/10/21 04:52:14;;;;;;;7.60;2.15;;;;;;;21.42;88.24;98575.00;5030206;28;20599;-40
2023/10/21 04:54:43;;;;;;;5.65;2.25;;;;;;;21.41;88.23;98573.41;5033645;28;20493;-45
2023/10/21 04:57:10;;;;;;;5.22;2.00;;;;;;;21.42;88.01;98579.69;5031329;28;20115;-45
2023/10/21 04:59:35;;;;;;;4.55;1.92;;;;;;;21.41;88.17;98580.84;5031761;28;20074;-44
2023/10/21 05:02:01;;;;;;;4.90;2.20;;;;;;;21.41;87.91;98591.88;5013857;28;20773;-46
2023/10/21 05:04:26;;;;;;;5.40;2.30;;;;;;;21.40;88.19;98595.81;5032435;28;20614;-43
2023/10/21 05:06:52;;;;;;;3.35;1.92;;;;;;;21.38;88.24;98598.88;5031895;28;20041;-44
2023/10/21 05:09:17;;;;;;;4.82;2.20;;;;;;;21.39;88.35;98602.47;5030739;28;20146;-45
2023/10/21 05:11:43;;;;;;;4.90;1.90;;;;;;;21.39;87.91;98602.47;5031068;28;20039;-44
2023/10/21 05:14:08;;;;;;;3.20;1.90;;;;;;;21.37;88.14;98604.75;5031902;28;20047;-40
2023/10/21 05:16:34;;;;;;;3.17;1.95;;;;;;;21.37;88.03;98607.50;5032550;28;20075;-39
2023/10/21 05:18:59;;;;;;;5.72;2.40;;;;;;;21.37;88.11;98610.28;5031668;28;20154;-40
2023/10/21 05:21:24;;;;;;;4.38;2.30;;;;;;;21.37;87.96;98611.06;5032692;28;20024;-40
2023/10/21 05:23:50;;;;;;;5.07;2.13;;;;;;;21.37;88.23;98618.53;5030220;28;20115;-40
2023/10/21 05:26:17;;;;;;;3.78;1.95;;;;;;;21.37;88.21;98615.78;5032112;28;21454;-40
2023/10/21 05:28:43;;;;;;;4.78;2.10;;;;;;;21.37;88.13;98618.53;5031847;28;20491;-39
2023/10/21 05:31:08;;;;;;;4.30;1.83;;;;;;;21.37;88.44;98629.56;5031821;28;20032;-40
2023/10/21 05:33:33;;;;;;;5.85;2.13;;;;;;;21.37;87.83;98629.56;5032238;28;20036;-39
2023/10/21 05:35:59;;;;;;;3.85;2.10;;;;;;;21.36;88.17;98623.25;5034453;28;20036;-40
2023/10/21 05:38:25;;;;;;;2.78;2.05;;;;;;;21.35;88.29;98637.38;5022149;28;20123;-44
2023/10/21 05:40:50;;;;;;;4.57;1.88;;;;;;;21.35;87.94;98635.44;5018466;28;20040;-43
2023/10/21 05:43:16;;;;;;;4.45;2.10;;;;;;;21.35;87.85;98632.69;5034474;28;20043;-45
2023/10/21 05:45:43;;;;;;;5.45;2.00;;;;;;;21.35;88.03;98642.88;5016826;28;20033;-38
2023/10/21 05:48:09;;;;;;;3.92;1.83;;;;;;;21.35;88.28;98643.69;5034465;28;20090;-41
2023/10/21 05:50:36;;;;;;;4.07;1.88;;;;;;;21.36;88.37;98644.47;5035669;28;20041;-39
2023/10/21 05:53:01;;;;;;;5.15;2.13;;;;;;;21.36;88.35;98653.56;5017539;28;20074;-42
2023/10/21 05:55:27;;;;;;;6.15;1.90;;;;;;;21.37;88.07;98657.91;5035604;28;20044;-43
2023/10/21 05:57:53;;;;;;;6.22;2.03;;;;;;;21.37;87.94;98657.09;5030132;28;20892;-44
2023/10/21 06:00:18;;;;;;;3.88;1.98;;;;;;;21.35;87.80;98662.97;5034575;28;21472;-46
2023/10/21 06:02:44;;;;;;;3.33;1.80;;;;;;;21.36;88.13;98666.53;5034841;28;20044;-40
2023/10/21 06:05:09;;;;;;;3.22;2.00;;;;;;;21.36;88.33;98681.13;5034447;28;20036;-41
2023/10/21 06:07:35;;;;;;;4.57;2.00;;;;;;;21.33;88.09;98676.28;5035874;28;21496;-41
2023/10/21 06:10:00;;;;;;;4.13;1.83;;;;;;;21.30;88.45;98686.06;5035391;28;20028;-44
2023/10/21 06:12:26;;;;;;;3.60;1.60;;;;;;;21.31;88.38;98684.09;5033879;28;20588;-45
2023/10/21 06:14:53;;;;;;;3.33;2.05;;;;;;;21.30;88.27;98690.78;5034630;28;20123;-44
2023/10/21 06:17:18;;;;;;;3.30;1.80;;;;;;;21.31;88.29;98695.13;5034932;28;20036;-45
2023/10/21 06:19:44;;;;;;;3.95;2.03;;;;;;;21.37;88.17;98698.44;5034596;28;20642;-44
2023/10/21 06:22:11;;;;;;;3.72;2.00;;;;;;;21.43;87.69;98705.28;5035752;28;20532;-44
2023/10/21 06:24:37;;;;;;;3.72;1.83;;;;;;;21.47;87.46;98712.50;5032549;28;20579;-44
2023/10/21 06:27:04;;;;;;;4.20;2.10;;;;;;;21.57;87.16;98715.94;5034073;28;20386;-44
2023/10/21 06:29:30;;;;;;;3.97;2.03;;;;;;;21.66;87.19;98713.03;5033561;28;20032;-46
2023/10/21 06:31:55;;;;;;;4.53;1.92;;;;;;;21.74;86.69;98723.09;5035070;28;20404;-45
2023/10/21 06:34:21;;;;;;;3.35;2.00;;;;;;;21.80;86.26;98718.91;5033860;28;20036;-46
2023/10/21 06:36:46;;;;;;;2.95;1.60;;;;;;;21.85;85.83;98726.13;5015281;28;20159;-46
2023/10/21 06:39:12;;;;;;;4.82;1.80;;;;;;;21.88;85.79;98728.19;5033390;28;20098;-46
2023/10/21 06:41:37;;;;;;;4.57;1.80;;;;;;;21.90;85.60;98732.19;5034520;28;20130;-44
2023/10/21 06:44:02;;;;;;;5.68;2.08;;;;;;;21.92;85.79;98738.13;5035082;28;20110;-45
2023/10/21 06:46:29;;;;;;;3.42;1.77;;;;;;;21.93;85.56;98745.25;5033766;28;20582;-43
2023/10/21 06:48:55;;;;;;;4.80;1.90;;;;;;;21.93;85.65;98748.00;5015092;28;20047;-44
2023/10/21 06:51:20;;;;;;;6.32;2.10;;;;;;;21.95;85.70;98762.25;5035670;28;20036;-44
2023/10/21 06:53:45;;;;;;;3.88;1.77;;;;;;;21.96;85.52;98760.28;5019089;28;20036;-46
2023/10/21 06:56:12;;;;;;;3.13;1.60;;;;;;;21.95;85.49;98767.78;5033066;28;20337;-39
2023/10/21 06:58:38;;;;;;;3.38;1.92;;;;;;;21.96;85.28;98776.84;5032253;28;20020;-39
2023/10/21 07:01:03;;;;;;;3.53;1.80;;;;;;;21.95;85.59;98773.28;5032441;28;20036;-40
2023/10/21 07:03:29;;;;;;;2.22;1.70;;;;;;;21.94;85.54;98776.41;5033027;28;20554;-44
2023/10/21 07:05:55;;;;;;;2.50;1.60;;;;;;;21.94;85.49;98788.22;5016317;28;20551;-40
2023/10/21 07:08:21;;;;;;;2.78;1.70;;;;;;;21.94;85.04;98792.97;5032449;28;20034;-44
2023/10/21 07:10:46;;;;;;;5.82;2.03;;;;;;;21.95;85.35;98797.31;5015675;28;20811;-44
2023/10/21 07:13:11;;;;;;;4.80;1.95;;;;;;;21.95;85.47;98800.09;4999130;28;21634;-45
2023/10/21 07:15:37;;;;;;;2.97;1.88;;;;;;;21.94;85.51;98799.25;5015745;28;20060;-44
2023/10/21 07:18:02;;;;;;;3.50;2.00;;;;;;;21.94;85.40;98810.28;5009915;28;20084;-44
2023/10/21 07:20:28;;;;;;;2.97;1.60;;;;;;;21.94;85.28;98807.53;5016323;28;20535;-42
2023/10/21 07:22:54;;;;;;;3.05;2.03;;;;;;;21.94;85.73;98812.25;5014541;28;20041;-43
2023/10/21 07:25:19;;;;;;;4.32;1.92;;;;;;;21.95;85.67;98813.88;4992045;28;21534;-39
2023/10/21 07:27:46;;;;;;;4.72;2.00;;;;;;;21.94;85.37;98821.31;5012964;28;20037;-40
2023/10/21 07:30:12;;;;;;;2.63;1.70;;;;;;;21.96;85.35;98820.97;5017474;28;20056;-40
2023/10/21 07:32:37;;;;;;;4.30;1.88;;;;;;;21.95;85.63;98827.66;5015581;28;20072;-43
2023/10/21 07:35:04;;;;;;;2.80;1.75;;;;;;;21.94;85.29;98826.84;5014302;28;20024;-39
2023/10/21 07:37:30;;;;;;;3.95;1.90;;;;;;;21.93;85.42;98841.78;5014609;28;20044;-39
2023/10/21 07:39:58;;;;;;;3.42;1.83;;;;;;;21.93;85.66;98838.22;5016453;28;20504;-40
2023/10/21 07:42:27;;;;;;;3.72;1.95;;;;;;;21.92;85.85;98837.41;5011828;28;20397;-39
2023/10/21 07:44:53;;;;;;;3.30;1.92;;;;;;;21.91;85.70;98841.34;4997833;28;20515;-40
2023/10/21 07:47:18;;;;;;;2.90;1.85;;;;;;;21.92;85.85;98837.41;5015141;28;20048;-39
2023/10/21 07:49:43;;;;;;;5.60;1.95;;;;;;;21.91;85.31;98849.63;5015802;28;20046;-39
2023/10/21 07:52:09;;;;;;;2.88;1.90;;;;;;;21.91;85.61;98851.56;5014310;28;20037;-39
2023/10/21 07:54:37;;;;;;;4.68;2.05;;;;;;;21.93;85.37;98861.09;5013158;28;20035;-45
2023/10/21 07:57:04;;;;;;;4.28;1.95;;;;;;;21.93;85.39;98868.56;5013889;28;21429;-44
2023/10/21 07:59:29;;;;;;;4.45;1.70;;;;;;;21.93;85.58;98865.81;5014585;28;20540;-44
2023/10/21 08:01:55;;;;;;;4.38;1.80;;;;;;;21.91;85.67;98863.41;5015245;28;20024;-46
2023/10/21 08:04:20;;;;;;;3.20;1.83;;;;;;;21.89;85.72;98873.97;5013832;28;20041;-44
2023/10/21 08:06:46;;;;;;;2.97;1.80;;;;;;;21.90;85.53;98874.78;5014174;28;20194;-44
2023/10/21 08:09:15;;;;;;;2.10;1.70;;;;;;;21.89;85.79;98875.94;4997725;28;20527;-43
2023/10/21 08:11:43;;;;;;;3.75;1.85;;;;;;;21.87;86.36;98881.00;5012299;28;20118;-45
2023/10/21 08:14:12;;;;;;;1.63;1.40;;;;;;;21.86;86.41;98891.22;5013648;28;20033;-45
2023/10/21 08:16:38;;;;;;;4.35;1.90;;;;;;;21.85;86.40;98903.41;4984600;28;20193;-44
2023/10/21 08:19:04;;;;;;;2.63;1.60;;;;;;;21.84;86.31;98898.22;4993673;28;20599;-45
2023/10/21 08:21:30;;;;;;;3.55;1.65;;;;;;;21.82;86.39;98912.38;5009830;28;20036;-42
2023/10/21 08:23:57;;;;;;;5.78;1.65;;;;;;;21.80;86.55;98914.66;5012098;28;20040;-40
2023/10/21 08:26:24;;;;;;;5.28;2.08;;;;;;;21.78;86.64;98917.78;5010011;28;20673;-40
2023/10/21 08:28:49;;;;;;;2.55;1.40;;;;;;;21.79;86.90;98921.38;5011862;28;20598;-40
2023/10/21 08:31:15;;;;;;;4.43;2.05;;;;;;;21.78;86.50;98930.78;5009914;28;20043;-40
2023/10/21 08:33:40;;;;;;;3.00;1.60;;;;;;;21.77;86.54;98935.47;5013122;28;20041;-40
2023/10/21 08:36:16;;;;;;;4.32;1.52;;;;;;;21.76;86.70;98935.84;5011033;28;20064;-40
2023/10/21 08:38:42;;;;;;;2.47;1.55;;;;;;;21.76;86.82;98946.84;5010693;28;20957;-40
2023/10/21 08:41:14;;;;;;;2.33;1.33;;;;;;;21.74;86.90;98947.22;4993101;28;20074;-40
2023/10/21 08:43:45;;;;;;;3.30;1.40;;;;;;;21.73;86.99;98955.81;5012240;28;21610;-46
2023/10/21 08:46:13;;;;;;;2.15;1.45;;;;;;;21.72;86.68;98957.00;5010799;28;20609;-46
2023/10/21 08:48:39;;;;;;;3.33;1.27;;;;;;;21.71;86.59;98945.13;5009978;28;20060;-43
2023/10/21 08:51:08;;;;;;;4.70;1.60;;;;;;;21.71;86.90;98958.91;5009083;28;20630;-46
2023/10/21 08:53:36;;;;;;;3.85;1.48;;;;;;;21.71;86.66;98963.66;5010448;28;20037;-45
2023/10/21 08:56:01;;;;;;;3.72;1.88;;;;;;;21.70;86.96;98973.06;4996554;28;21287;-44
2023/10/21 08:58:31;;;;;;;2.58;1.88;;;;;;;21.70;87.05;98973.06;4993851;28;20057;-45
2023/10/21 09:00:56;;;;;;;1.55;1.17;;;;;;;21.68;86.81;98976.19;5012719;28;20056;-40
2023/10/21 09:03:23;;;;;;;3.60;1.58;;;;;;;21.68;87.03;98978.94;5011729;28;20094;-45
2023/10/21 09:06:11;;;;;;;2.58;1.13;;;;;;;21.65;86.85;98982.38;5011074;28;20025;-44
2023/10/21 09:08:38;;;;;;;2.00;1.10;;;;;;;21.66;86.88;98992.25;5016659;28;20276;-45
2023/10/21 09:11:07;;;;;;;2.30;1.35;;;;;;;21.64;86.75;98992.59;5016449;28;20029;-44
2023/10/21 09:13:37;;;;;;;1.98;1.30;;;;;;;21.63;87.03;98993.75;5014947;28;20033;-44
2023/10/21 09:16:06;;;;;;;3.13;1.33;;;;;;;21.63;87.05;98998.44;5016729;28;21757;-40
2023/10/21 09:18:35;;;;;;;1.67;1.10;;;;;;;21.64;86.84;99002.81;5025021;28;20127;-40
2023/10/21 09:21:02;;;;;;;3.83;1.60;;;;;;;21.65;86.73;99004.41;5035412;28;20127;-40
2023/10/21 09:23:27;;;;;;;3.47;1.33;;;;;;;21.65;86.81;99009.94;5034735;28;20118;-44
2023/10/21 09:25:53;;;;;;;3.58;1.30;;;;;;;21.63;86.66;99026.00;5036094;28;20048;-43
2023/10/21 09:28:24;;;;;;;2.67;1.30;;;;;;;21.63;86.62;99026.00;5035777;28;20740;-43
2023/10/21 09:30:57;;;;;;;2.95;1.13;;;;;;;21.62;86.79;99029.94;5035235;28;20032;-45
2023/10/21 09:33:25;;;;;;;1.97;1.20;;;;;;;21.61;86.71;99042.91;5035891;28;20436;-44
2023/10/21 09:36:04;;;;;;;2.60;1.25;;;;;;;21.59;86.71;99038.88;5036279;28;20159;-44
2023/10/21 09:38:38;;;;;;;4.45;1.30;;;;;;;21.59;86.84;99036.94;5034900;28;20028;-46
2023/10/21 09:41:08;;;;;;;1.08;0.90;;;;;;;21.60;86.79;99034.97;5035061;28;20115;-44
2023/10/21 09:43:37;;;;;;;1.63;1.10;;;;;;;21.62;86.85;99046.47;5036893;28;20032;-46
2023/10/21 09:46:05;;;;;;;2.72;1.55;;;;;;;21.62;86.63;99050.03;5035897;28;20037;-45
2023/10/21 09:48:35;;;;;;;1.67;1.00;;;;;;;21.62;86.59;99057.50;5035970;28;20852;-44
2023/10/21 09:51:06;;;;;;;4.47;1.30;;;;;;;21.62;86.65;99050.03;5017585;28;20040;-44
2023/10/21 09:53:45;;;;;;;2.05;0.95;;;;;;;21.64;87.00;99033.13;5016023;28;20028;-43
2023/10/21 09:56:14;;;;;;;4.20;1.10;;;;;;;21.67;86.63;99057.28;5035358;28;20039;-45
2023/10/21 09:58:40;;;;;;;2.05;1.05;;;;;;;21.70;86.59;99055.78;5036278;28;21118;-45
2023/10/21 10:01:07;;;;;;;2.10;1.20;;;;;;;21.70;86.87;99062.06;5035215;28;20051;-42
2023/10/21 10:03:35;;;;;;;2.60;1.30;;;;;;;21.72;86.71;99057.03;5035051;28;20024;-43
2023/10/21 10:06:06;;;;;;;2.25;1.10;;;;;;;21.74;87.07;99071.28;5034746;28;20036;-41
2023/10/21 10:08:33;;;;;;;1.40;1.00;;;;;;;21.76;87.13;99065.41;5034464;28;20060;-43
2023/10/21 10:11:01;;;;;;;1.92;0.90;;;;;;;21.77;86.98;99076.09;5035900;28;20521;-44
2023/10/21 10:13:28;;;;;;;2.65;0.88;;;;;;;21.79;86.74;99081.28;5035216;28;20032;-44
2023/10/21 10:15:55;;;;;;;3.38;1.20;;;;;;;21.80;87.13;99080.94;5034126;28;21001;-44
2023/10/21 10:18:21;;;;;;;1.73;1.00;;;;;;;21.81;86.86;99090.00;5037882;28;20067;-43
2023/10/21 10:20:51;;;;;;;2.88;1.20;;;;;;;21.81;86.89;99092.75;5037382;28;20060;-44
2023/10/21 10:23:24;;;;;;;3.83;1.52;;;;;;;21.85;86.58;99092.88;5020597;28;20028;-43
2023/10/21 10:25:51;;;;;;;1.48;1.00;;;;;;;21.87;86.62;99079.56;5035409;28;20345;-44
2023/10/21 10:28:19;;;;;;;4.05;1.15;;;;;;;21.87;86.76;99079.56;5037746;28;20033;-40
2023/10/21 10:30:49;;;;;;;2.38;1.08;;;;;;;21.88;86.84;99081.16;5038355;28;20127;-44
2023/10/21 10:33:18;;;;;;;18.42;3.05;;;;;;;21.90;86.80;99087.94;5040399;28;20036;-39
2023/10/21 10:35:48;;;;;;;9.77;1.50;;;;;;;21.93;86.81;99106.53;5040514;28;20086;-39
2023/10/21 10:38:27;;;;;;;41.00;3.53;;;;;;;21.98;86.70;99100.00;5030463;28;20044;-40
2023/10/21 10:41:06;;;;;;;14.90;1.80;;;;;;;22.04;86.77;99093.09;5035455;28;20127;-38
2023/10/21 10:43:37;;;;;;;9.68;1.40;;;;;;;22.11;86.68;99111.84;5034623;28;21488;-40
2023/10/21 10:46:05;;;;;;;8.10;1.33;;;;;;;22.16;86.60;99103.31;5034709;28;20036;-40
2023/10/21 10:48:30;;;;;;;9.68;1.35;;;;;;;22.19;86.21;99108.13;5035005;28;20034;-41
2023/10/21 10:50:57;;;;;;;4.40;1.40;;;;;;;22.23;86.32;99103.53;5032301;28;20510;-41
2023/10/21 10:53:23;;;;;;;4.65;1.23;;;;;;;22.28;86.32;99110.78;5035538;28;20531;-39
2023/10/21 10:55:53;;;;;;;9.73;1.75;;;;;;;22.31;85.85;99104.56;5034240;28;20058;-41
2023/10/21 10:58:20;;;;;;;3.90;1.30;;;;;;;22.35;86.09;99116.50;5018724;28;20048;-41
2023/10/21 11:00:46;;;;;;;5.25;1.30;;;;;;;22.39;85.98;99105.59;5034346;28;20158;-44
2023/10/21 11:03:22;;;;;;;3.95;1.20;;;;;;;22.43;85.87;99112.84;5034515;28;20535;-47
2023/10/21 11:05:48;;;;;;;4.18;1.40;;;;;;;22.49;85.41;99109.81;5031432;28;20190;-49
2023/10/21 11:08:15;;;;;;;3.35;1.40;;;;;;;22.51;85.55;99111.06;5034880;28;20113;-42
2023/10/21 11:10:41;;;;;;;2.53;1.23;;;;;;;22.54;85.33;99124.19;5031811;28;20036;-39
2023/10/21 11:13:07;;;;;;;3.33;1.40;;;;;;;22.56;85.18;99121.91;5033820;28;20963;-40
2023/10/21 11:15:44;;;;;;;4.18;1.33;;;;;;;22.59;85.04;99134.19;5032924;28;20443;-42
2023/10/21 11:18:11;;;;;;;3.35;1.15;;;;;;;22.60;84.59;99128.31;5034048;28;20576;-42
2023/10/21 11:20:50;;;;;;;5.97;1.30;;;;;;;22.63;84.56;99126.81;5017321;28;20147;-42
2023/10/21 11:23:18;;;;;;;2.58;1.33;;;;;;;22.66;84.48;99133.59;5031337;28;20032;-40
2023/10/21 11:25:48;;;;;;;4.10;1.17;;;;;;;22.68;84.27;99129.31;5031905;28;20140;-46
2023/10/21 11:28:14;;;;;;;4.90;1.60;;;;;;;22.69;84.13;99119.09;5033056;28;20123;-50
2023/10/21 11:30:43;;;;;;;5.10;1.30;;;;;;;22.72;84.00;99121.97;5032025;28;20484;-47
2023/10/21 11:33:12;;;;;;;4.00;1.20;;;;;;;22.75;84.05;99120.47;5032814;28;20037;-49